KWHP/WHP METAR and TAF weather

Enter ICAO airport designator
Station Type Date Time Source
KWHP METAR 2021/05/10 00:50 UTC NOAA

KWHP 100050Z 14013G20KT 10SM SKC 21/12 A2987


Station Type Date Time Source
KWHP Decoded METAR 2021/05/10 00:50 UTC NOAA

Los Angeles, Whiteman Airport, CA, United States (KWHP) 34-15N 118-24W
May 09, 2021 - 08:50 PM EDT / 2021.05.10 0050 UTC
Wind: from the SE (140 degrees) at 15 MPH (13 KT) gusting to 23 MPH (20 KT):0
Visibility: 10 mile(s):0
Sky conditions: clear
Temperature: 69 F (21 C)
Dew Point: 53 F (12 C)
Relative Humidity: 56%
Pressure (altimeter): 29.87 in. Hg (1011 hPa)
ob: KWHP 100050Z 14013G20KT 10SM SKC 21/12 A2987
cycle: 1

Station Type Date Time Source
KWHP TAF UTC NOAA

Error!

Example: see airport list